createdAt,value
2023-05-14T00:01:59.209Z,101512.97
2023-05-14T00:04:28.416Z,101509.27
2023-05-14T00:06:55.879Z,101511.60
2023-05-14T00:09:17.742Z,101512.70
2023-05-14T00:11:50.936Z,101513.67
2023-05-14T00:14:26.894Z,101512.46
2023-05-14T00:16:57.582Z,101507.92
2023-05-14T00:19:30.587Z,101506.44
2023-05-14T00:21:54.651Z,101510.48
2023-05-14T00:24:28.875Z,101514.52
2023-05-14T00:26:56.614Z,101510.59
2023-05-14T00:29:30.949Z,101507.30
2023-05-14T00:31:57.176Z,101509.95
2023-05-14T00:34:19.472Z,101510.38
2023-05-14T00:36:46.232Z,101508.85
2023-05-14T00:39:19.193Z,101506.83
2023-05-14T00:41:52.932Z,101508.10
2023-05-14T00:44:27.053Z,101511.25
2023-05-14T00:46:56.988Z,101506.17
2023-05-14T00:49:31.842Z,101506.98
2023-05-14T00:52:05.600Z,101502.51
2023-05-14T00:54:34.397Z,101501.70
2023-05-14T00:57:08.272Z,101498.74
2023-05-14T00:59:43.776Z,101496.52
2023-05-14T01:02:17.468Z,101492.34
2023-05-14T01:04:51.451Z,101491.39
2023-05-14T01:07:33.091Z,101488.79
2023-05-14T01:10:04.203Z,101492.67
2023-05-14T01:12:33.499Z,101491.75
2023-05-14T01:15:03.086Z,101492.23
2023-05-14T01:17:28.458Z,101495.86
2023-05-14T01:20:14.324Z,101496.54
2023-05-14T01:22:48.594Z,101498.84
2023-05-14T01:25:23.880Z,101496.83
2023-05-14T01:28:04.587Z,101496.75
2023-05-14T01:30:43.700Z,101499.35
2023-05-14T01:33:22.131Z,101502.44
2023-05-14T01:35:56.468Z,101498.89
2023-05-14T01:38:31.857Z,101498.11
2023-05-14T01:41:05.961Z,101502.95
2023-05-14T01:43:41.741Z,101499.77
2023-05-14T01:46:15.187Z,101496.53
2023-05-14T01:48:49.303Z,101496.41
2023-05-14T01:51:26.676Z,101495.46
2023-05-14T01:53:52.957Z,101493.59
2023-05-14T01:56:23.007Z,101489.70
2023-05-14T01:58:56.786Z,101487.51
2023-05-14T02:01:23.898Z,101488.90
2023-05-14T02:03:49.308Z,101489.56
2023-05-14T02:06:16.400Z,101486.57
2023-05-14T02:08:42.132Z,101486.14
2023-05-14T02:11:01.805Z,101479.61
2023-05-14T02:13:28.953Z,101480.24
2023-05-14T02:15:59.949Z,101481.89
2023-05-14T02:18:33.729Z,101480.20
2023-05-14T02:21:00.478Z,101483.73
2023-05-14T02:23:34.036Z,101480.14
2023-05-14T02:26:11.641Z,101482.92
2023-05-14T02:28:35.519Z,101483.11
2023-05-14T02:31:08.089Z,101481.55
2023-05-14T02:33:42.977Z,101485.23
2023-05-14T02:36:04.845Z,101485.60
2023-05-14T02:38:53.767Z,101478.79
2023-05-14T02:41:26.669Z,101477.10
2023-05-14T02:44:00.722Z,101481.42
2023-05-14T02:46:35.794Z,101478.89
2023-05-14T02:49:04.053Z,101477.44
2023-05-14T02:51:37.740Z,101476.50
2023-05-14T02:54:12.612Z,101474.52
2023-05-14T02:56:39.247Z,101475.75
2023-05-14T02:59:13.359Z,101476.85
2023-05-14T03:01:46.751Z,101479.52
2023-05-14T03:04:05.481Z,101483.44
2023-05-14T03:06:39.123Z,101484.95
2023-05-14T03:09:13.524Z,101488.55
2023-05-14T03:11:48.221Z,101494.02
2023-05-14T03:14:15.837Z,101496.59
2023-05-14T03:16:49.875Z,101495.54
2023-05-14T03:19:17.835Z,101497.88
2023-05-14T03:24:35.080Z,101502.95
2023-05-14T03:26:57.928Z,101505.90
2023-05-14T03:29:32.701Z,101510.91
2023-05-14T03:32:07.077Z,101512.73
2023-05-14T03:34:42.044Z,101518.11
2023-05-14T03:37:17.765Z,101517.52
2023-05-14T03:39:52.471Z,101519.22
2023-05-14T03:42:26.711Z,101521.16
2023-05-14T03:44:43.790Z,101520.66
2023-05-14T03:47:00.960Z,101522.32
2023-05-14T03:49:28.713Z,101522.27
2023-05-14T03:51:45.887Z,101527.30
2023-05-14T03:54:11.624Z,101532.33
2023-05-14T03:56:43.661Z,101531.73
2023-05-14T03:59:07.685Z,101532.61
2023-05-14T04:01:24.520Z,101534.77
2023-05-14T04:03:50.584Z,101538.09
2023-05-14T04:06:24.142Z,101540.98
2023-05-14T04:08:48.876Z,101543.73
2023-05-14T04:11:14.252Z,101546.88
2023-05-14T04:13:30.456Z,101546.17
2023-05-14T04:15:58.175Z,101548.79
2023-05-14T04:18:36.089Z,101550.33
2023-05-14T04:21:05.280Z,101551.59
2023-05-14T04:23:31.092Z,101551.95
2023-05-14T04:25:50.428Z,101553.95
2023-05-14T04:28:14.433Z,101554.18
2023-05-14T04:30:39.938Z,101558.27
2023-05-14T04:33:13.508Z,101557.89
2023-05-14T04:38:12.649Z,101556.99
2023-05-14T04:40:47.254Z,101558.73
2023-05-14T04:43:16.377Z,101557.61
2023-05-14T04:45:42.139Z,101562.46
2023-05-14T04:48:13.471Z,101565.88
2023-05-14T04:50:33.569Z,101570.23
2023-05-14T04:53:07.196Z,101572.54
2023-05-14T04:55:35.140Z,101570.02
2023-05-14T04:58:10.144Z,101571.23
2023-05-14T05:00:29.755Z,101574.73
2023-05-14T05:02:52.632Z,101574.05
2023-05-14T05:05:18.819Z,101572.41
2023-05-14T05:07:46.814Z,101569.15
2023-05-14T05:10:23.203Z,101571.73
2023-05-14T05:12:56.701Z,101569.98
2023-05-14T05:15:23.699Z,101567.73
2023-05-14T05:17:41.721Z,101563.69
2023-05-14T05:20:11.139Z,101564.33
2023-05-14T05:22:31.773Z,101560.80
2023-05-14T05:24:50.657Z,101561.27
2023-05-14T05:27:12.714Z,101560.29
2023-05-14T05:29:36.740Z,101561.90
2023-05-14T05:32:02.665Z,101559.07
2023-05-14T05:34:17.185Z,101561.29
2023-05-14T05:36:35.034Z,101562.87
2023-05-14T05:39:00.953Z,101562.20
2023-05-14T05:41:31.364Z,101560.85
2023-05-14T05:43:50.869Z,101562.20
2023-05-14T05:46:16.855Z,101564.99
2023-05-14T05:48:40.337Z,101564.73
2023-05-14T05:51:04.689Z,101567.34
2023-05-14T05:53:37.238Z,101570.16
2023-05-14T05:55:57.882Z,101571.54
2023-05-14T05:58:26.366Z,101572.77
2023-05-14T06:00:50.190Z,101574.79
2023-05-14T06:03:09.914Z,101575.73
2023-05-14T06:05:44.201Z,101572.48
2023-05-14T06:08:17.609Z,101570.73
2023-05-14T06:10:51.461Z,101567.89
2023-05-14T06:13:21.816Z,101574.09
2023-05-14T06:15:55.416Z,101574.46
2023-05-14T06:18:28.425Z,101574.23
2023-05-14T06:21:01.832Z,101574.84
2023-05-14T06:23:33.750Z,101572.86
2023-05-14T06:26:08.088Z,101566.52
2023-05-14T06:28:27.680Z,101564.24
2023-05-14T06:30:47.027Z,101565.55
2023-05-14T06:33:23.079Z,101559.92
2023-05-14T06:35:48.677Z,101560.19
2023-05-14T06:38:23.610Z,101557.59
2023-05-14T06:40:44.258Z,101558.80
2023-05-14T06:43:05.018Z,101557.53
2023-05-14T06:45:22.235Z,101556.83
2023-05-14T06:47:56.277Z,101557.27
2023-05-14T06:50:30.166Z,101558.16
2023-05-14T06:53:04.387Z,101561.99
2023-05-14T06:55:30.674Z,101557.25
2023-05-14T06:57:55.709Z,101553.80
2023-05-14T07:00:31.067Z,101551.02
2023-05-14T07:03:04.784Z,101546.83
2023-05-14T07:05:31.753Z,101552.20
2023-05-14T07:07:58.767Z,101555.15
2023-05-14T07:10:23.694Z,101552.02
2023-05-14T07:12:57.159Z,101550.35
2023-05-14T07:15:32.317Z,101546.77
2023-05-14T07:17:59.912Z,101549.16
2023-05-14T07:20:27.838Z,101548.61
2023-05-14T07:23:01.779Z,101546.90
2023-05-14T07:25:36.459Z,101553.20
2023-05-14T07:28:00.349Z,101551.09
2023-05-14T07:30:21.282Z,101552.17
2023-05-14T07:32:55.780Z,101548.33
2023-05-14T07:35:29.957Z,101548.53
2023-05-14T07:37:57.620Z,101546.29
2023-05-14T07:40:28.025Z,101544.30
2023-05-14T07:42:52.264Z,101542.08
2023-05-14T07:45:18.219Z,101541.52
2023-05-14T07:50:20.725Z,101538.85
2023-05-14T07:52:40.889Z,101535.96
2023-05-14T07:55:18.078Z,101537.29
2023-05-14T07:57:51.769Z,101529.85
2023-05-14T08:00:23.261Z,101524.54
2023-05-14T08:02:45.580Z,101525.70
2023-05-14T08:05:17.095Z,101522.03
2023-05-14T08:07:44.507Z,101523.10
2023-05-14T08:10:18.596Z,101514.16
2023-05-14T08:12:46.780Z,101515.88
2023-05-14T08:15:17.645Z,101516.38
2023-05-14T08:17:38.588Z,101511.95
2023-05-14T08:20:10.217Z,101508.80
2023-05-14T08:22:31.841Z,101500.65
2023-05-14T08:25:07.082Z,101502.56
2023-05-14T08:27:33.012Z,101494.07
2023-05-14T08:30:07.886Z,101495.29
2023-05-14T08:32:43.638Z,101495.90
2023-05-14T08:35:17.302Z,101491.50
2023-05-14T08:37:55.009Z,101492.10
2023-05-14T08:40:28.514Z,101487.89
2023-05-14T08:42:59.660Z,101488.42
2023-05-14T08:45:37.461Z,101494.20
2023-05-14T08:48:08.112Z,101494.13
2023-05-14T08:50:34.610Z,101488.02
2023-05-14T08:53:09.351Z,101487.23
2023-05-14T08:55:43.593Z,101493.12
2023-05-14T08:58:17.400Z,101493.54
2023-05-14T09:00:43.326Z,101490.47
2023-05-14T09:03:03.142Z,101485.70
2023-05-14T09:05:36.930Z,101481.13
2023-05-14T09:08:11.456Z,101483.98
2023-05-14T09:10:41.450Z,101484.16
2023-05-14T09:13:07.190Z,101480.89
2023-05-14T09:15:34.961Z,101474.50
2023-05-14T09:18:08.320Z,101468.35
2023-05-14T09:20:31.278Z,101459.84
2023-05-14T09:23:01.098Z,101459.09
2023-05-14T09:25:37.950Z,101457.71
2023-05-14T09:28:15.260Z,101456.52
2023-05-14T09:30:50.280Z,101460.40
2023-05-14T09:33:15.528Z,101453.90
2023-05-14T09:35:51.098Z,101454.82
2023-05-14T09:38:23.999Z,101451.11
2023-05-14T09:40:52.625Z,101452.39
2023-05-14T09:43:19.520Z,101449.16
2023-05-14T09:45:54.620Z,101446.02
2023-05-14T09:48:28.425Z,101448.19
2023-05-14T09:50:53.984Z,101447.29
2023-05-14T09:53:21.839Z,101441.59
2023-05-14T09:55:55.499Z,101445.88
2023-05-14T09:58:28.091Z,101441.33
2023-05-14T10:01:04.717Z,101436.11
2023-05-14T10:03:35.964Z,101438.73
2023-05-14T10:06:12.178Z,101437.43
2023-05-14T10:08:42.833Z,101431.92
2023-05-14T10:11:14.117Z,101435.58
2023-05-14T10:13:50.240Z,101434.95
2023-05-14T10:16:17.105Z,101435.20
2023-05-14T10:18:49.699Z,101436.52
2023-05-14T10:21:28.958Z,101432.66
2023-05-14T10:24:00.007Z,101432.64
2023-05-14T10:26:35.660Z,101433.23
2023-05-14T10:29:13.167Z,101426.23
2023-05-14T10:31:57.727Z,101423.69
2023-05-14T10:34:42.118Z,101429.73
2023-05-14T10:37:10.212Z,101426.09
2023-05-14T10:39:49.907Z,101425.16
2023-05-14T10:42:30.191Z,101421.90
2023-05-14T10:45:09.794Z,101419.48
2023-05-14T10:47:30.070Z,101417.47
2023-05-14T10:49:59.493Z,101418.40
2023-05-14T10:52:22.627Z,101415.23
2023-05-14T10:55:02.915Z,101414.35
2023-05-14T10:57:32.893Z,101411.25
2023-05-14T11:00:09.087Z,101406.54
2023-05-14T11:02:38.563Z,101407.83
2023-05-14T11:05:15.307Z,101398.05
2023-05-14T11:07:50.293Z,101390.84
2023-05-14T11:10:24.890Z,101392.63
2023-05-14T11:13:00.086Z,101395.32
2023-05-14T11:15:34.599Z,101385.89
2023-05-14T11:18:00.932Z,101380.73
2023-05-14T11:20:27.732Z,101369.84
2023-05-14T11:23:02.309Z,101367.93
2023-05-14T11:25:34.747Z,101365.17
2023-05-14T11:28:08.784Z,101366.64
2023-05-14T11:30:38.371Z,101366.48
2023-05-14T11:33:06.699Z,101361.66
2023-05-14T11:35:44.031Z,101362.51
2023-05-14T11:38:23.071Z,101361.96
2023-05-14T11:41:01.883Z,101364.79
2023-05-14T11:43:30.955Z,101358.66
2023-05-14T11:46:06.266Z,101357.45
2023-05-14T11:48:35.330Z,101363.94
2023-05-14T11:50:54.721Z,101368.48
2023-05-14T11:53:23.081Z,101365.78
2023-05-14T11:55:50.014Z,101371.86
2023-05-14T11:58:18.290Z,101370.77
2023-05-14T12:00:47.739Z,101368.64
2023-05-14T12:03:13.539Z,101366.58
2023-05-14T12:05:44.344Z,101365.89
2023-05-14T12:08:33.317Z,101364.05
2023-05-14T12:11:01.719Z,101362.80
2023-05-14T12:13:32.434Z,101364.06
2023-05-14T12:16:06.550Z,101363.69
2023-05-14T12:18:32.125Z,101365.59
2023-05-14T12:21:09.491Z,101361.52
2023-05-14T12:23:36.403Z,101364.42
2023-05-14T12:26:08.391Z,101367.27
2023-05-14T12:28:45.906Z,101370.05
2023-05-14T12:33:57.467Z,101356.49
2023-05-14T12:36:22.860Z,101360.58
2023-05-14T12:38:50.235Z,101363.79
2023-05-14T12:41:24.846Z,101359.27
2023-05-14T12:43:51.850Z,101356.98
2023-05-14T12:46:25.841Z,101352.27
2023-05-14T12:48:53.420Z,101353.98
2023-05-14T12:51:27.940Z,101351.64
2023-05-14T12:53:50.524Z,101350.23
2023-05-14T12:56:29.079Z,101350.85
2023-05-14T12:58:49.337Z,101348.83
2023-05-14T13:01:23.137Z,101352.08
2023-05-14T13:03:57.007Z,101348.60
2023-05-14T13:06:30.380Z,101344.95
2023-05-14T13:09:05.277Z,101347.63
2023-05-14T13:11:38.364Z,101344.70
2023-05-14T13:14:13.098Z,101339.00
2023-05-14T13:16:37.457Z,101341.48
2023-05-14T13:19:00.184Z,101336.15
2023-05-14T13:21:24.355Z,101336.95
2023-05-14T13:23:58.531Z,101335.67
2023-05-14T13:26:18.093Z,101337.30
2023-05-14T13:28:52.004Z,101337.63
2023-05-14T13:31:27.289Z,101338.02
2023-05-14T13:34:01.315Z,101336.75
2023-05-14T13:36:35.296Z,101334.86
2023-05-14T13:39:09.797Z,101332.63
2023-05-14T13:41:43.581Z,101331.97
2023-05-14T13:44:11.678Z,101333.95
2023-05-14T13:46:38.388Z,101333.63
2023-05-14T13:49:13.381Z,101334.77
2023-05-14T13:51:47.207Z,101335.64
2023-05-14T13:54:21.204Z,101333.63
2023-05-14T13:56:55.647Z,101330.52
2023-05-14T13:59:18.396Z,101325.52
2023-05-14T14:01:53.812Z,101327.23
2023-05-14T14:04:26.829Z,101327.12
2023-05-14T14:07:00.931Z,101330.33
2023-05-14T14:09:24.284Z,101330.63
2023-05-14T14:11:51.504Z,101330.48
2023-05-14T14:14:12.830Z,101334.31
2023-05-14T14:16:32.341Z,101338.36
2023-05-14T14:19:00.377Z,101340.49
2023-05-14T14:21:26.399Z,101347.59
2023-05-14T14:24:00.783Z,101350.98
2023-05-14T14:26:30.389Z,101351.23
2023-05-14T14:29:00.546Z,101351.49
2023-05-14T14:31:35.719Z,101347.96
2023-05-14T14:34:09.999Z,101351.55
2023-05-14T14:36:43.731Z,101353.79
2023-05-14T14:39:03.029Z,101355.26
2023-05-14T14:41:35.718Z,101355.60
2023-05-14T14:44:09.551Z,101351.38
2023-05-14T14:46:43.999Z,101348.60
2023-05-14T14:49:17.932Z,101349.77
2023-05-14T14:51:51.048Z,101347.71
2023-05-14T14:54:08.561Z,101338.20
2023-05-14T14:56:42.547Z,101339.25
2023-05-14T14:59:18.736Z,101339.34
2023-05-14T15:01:52.072Z,101340.51
2023-05-14T15:04:22.789Z,101339.95
2023-05-14T15:06:55.953Z,101334.49
2023-05-14T15:09:23.163Z,101334.48
2023-05-14T15:11:55.333Z,101332.16
2023-05-14T15:14:31.866Z,101327.29
2023-05-14T15:17:06.070Z,101325.68
2023-05-14T15:19:35.744Z,101323.29
2023-05-14T15:22:08.464Z,101323.83
2023-05-14T15:24:33.115Z,101321.86
2023-05-14T15:26:56.457Z,101316.96
2023-05-14T15:29:21.409Z,101314.00
2023-05-14T15:31:48.694Z,101311.63
2023-05-14T15:34:23.431Z,101307.39
2023-05-14T15:36:58.117Z,101309.02
2023-05-14T15:39:32.532Z,101311.81
2023-05-14T15:42:03.437Z,101309.16
2023-05-14T15:44:38.964Z,101312.43
2023-05-14T15:47:08.926Z,101308.63
2023-05-14T15:49:43.751Z,101296.89
2023-05-14T15:52:11.414Z,101298.19
2023-05-14T15:54:44.819Z,101299.73
2023-05-14T15:57:20.096Z,101293.48
2023-05-14T16:00:05.416Z,101281.73
2023-05-14T16:02:18.990Z,101275.08
2023-05-14T16:04:53.489Z,101280.55
2023-05-14T16:07:28.380Z,101275.53
2023-05-14T16:10:02.091Z,101267.23
2023-05-14T16:12:34.592Z,101259.78
2023-05-14T16:15:08.770Z,101253.74
2023-05-14T16:17:35.027Z,101246.29
2023-05-14T16:19:58.651Z,101243.79
2023-05-14T16:22:23.348Z,101250.15
2023-05-14T16:24:37.431Z,101249.19
2023-05-14T16:27:15.057Z,101249.41
2023-05-14T16:29:32.435Z,101247.27
2023-05-14T16:31:50.408Z,101238.14
2023-05-14T16:34:07.884Z,101234.95
2023-05-14T16:36:33.937Z,101236.05
2023-05-14T16:39:07.352Z,101232.13
2023-05-14T16:41:53.035Z,101229.59
2023-05-14T16:44:14.785Z,101225.50
2023-05-14T16:46:39.131Z,101229.05
2023-05-14T16:49:18.042Z,101231.17
2023-05-14T16:51:55.322Z,101223.29
2023-05-14T16:54:30.067Z,101218.79
2023-05-14T16:57:17.477Z,101218.81
2023-05-14T17:00:11.619Z,101215.55
2023-05-14T17:02:30.682Z,101208.20
2023-05-14T17:05:00.225Z,101205.11
2023-05-14T17:07:32.487Z,101203.02
2023-05-14T17:09:52.197Z,101206.02
2023-05-14T17:12:42.586Z,101205.14
2023-05-14T17:15:49.263Z,101199.76
2023-05-14T17:18:29.807Z,101198.08
2023-05-14T17:20:59.337Z,101196.85
2023-05-14T17:23:33.535Z,101196.36
2023-05-14T17:26:06.679Z,101196.11
2023-05-14T17:28:29.278Z,101197.73
2023-05-14T17:30:51.855Z,101199.48
2023-05-14T17:33:42.325Z,101188.09
2023-05-14T17:36:09.180Z,101187.88
2023-05-14T17:38:56.418Z,101188.09
2023-05-14T17:41:16.211Z,101187.36
2023-05-14T17:43:39.297Z,101181.02
2023-05-14T17:46:23.151Z,101176.39
2023-05-14T17:49:08.915Z,101168.81
2023-05-14T17:51:36.690Z,101165.65
2023-05-14T17:54:11.007Z,101162.68
2023-05-14T17:56:37.696Z,101153.92
2023-05-14T17:59:00.166Z,101148.54
2023-05-14T18:01:34.120Z,101146.48
2023-05-14T18:03:57.193Z,101140.20
2023-05-14T18:06:35.268Z,101145.80
2023-05-14T18:09:09.557Z,101140.89
2023-05-14T18:11:34.917Z,101136.05
2023-05-14T18:14:10.559Z,101132.83
2023-05-14T18:16:38.094Z,101135.48
2023-05-14T18:19:12.377Z,101129.98
2023-05-14T18:21:47.824Z,101127.04
2023-05-14T18:24:13.967Z,101123.11
2023-05-14T18:26:48.060Z,101115.66
2023-05-14T18:29:21.665Z,101120.38
2023-05-14T18:31:47.752Z,101108.94
2023-05-14T18:34:10.199Z,101114.11
2023-05-14T18:36:36.464Z,101120.64
2023-05-14T18:39:09.265Z,101118.05
2023-05-14T18:41:33.427Z,101119.72
2023-05-14T18:43:59.639Z,101125.96
2023-05-14T18:46:26.282Z,101126.46
2023-05-14T18:48:54.257Z,101122.42
2023-05-14T18:51:27.804Z,101115.69
2023-05-14T18:53:55.092Z,101113.09
2023-05-14T18:56:20.341Z,101113.66
2023-05-14T18:58:53.490Z,101116.82
2023-05-14T19:01:27.544Z,101115.67
2023-05-14T19:04:03.066Z,101108.73
2023-05-14T19:06:41.292Z,101103.88
2023-05-14T19:09:07.758Z,101098.07
2023-05-14T19:11:40.807Z,101099.09
2023-05-14T19:14:15.742Z,101095.32
2023-05-14T19:16:49.891Z,101099.43
2023-05-14T19:19:17.303Z,101100.23
2023-05-14T19:21:43.365Z,101101.73
2023-05-14T19:24:17.104Z,101101.38
2023-05-14T19:26:41.765Z,101097.27
2023-05-14T19:29:09.216Z,101096.29
2023-05-14T19:31:35.157Z,101100.16
2023-05-14T19:34:02.460Z,101099.23
2023-05-14T19:36:28.393Z,101108.40
2023-05-14T19:39:00.952Z,101105.90
2023-05-14T19:41:19.891Z,101097.04
2023-05-14T19:43:44.416Z,101091.07
2023-05-14T19:46:12.925Z,101091.33
2023-05-14T19:48:50.311Z,101094.38
2023-05-14T19:51:24.719Z,101088.38
2023-05-14T19:53:59.583Z,101085.95
2023-05-14T19:56:34.098Z,101081.66
2023-05-14T19:59:08.049Z,101084.35
2023-05-14T20:01:41.889Z,101079.96
2023-05-14T20:04:17.283Z,101080.43
2023-05-14T20:06:39.342Z,101079.19
2023-05-14T20:09:00.120Z,101081.00
2023-05-14T20:11:33.759Z,101083.24
2023-05-14T20:14:07.733Z,101074.84
2023-05-14T20:16:42.803Z,101074.25
2023-05-14T20:19:17.391Z,101078.42
2023-05-14T20:21:50.428Z,101069.80
2023-05-14T20:24:24.337Z,101073.50
2023-05-14T20:26:57.921Z,101078.52
2023-05-14T20:29:31.807Z,101081.34
2023-05-14T20:32:03.778Z,101079.36
2023-05-14T20:34:27.793Z,101073.59
2023-05-14T20:37:02.485Z,101076.06
2023-05-14T20:39:37.214Z,101068.48
2023-05-14T20:42:11.517Z,101070.49
2023-05-14T20:44:49.506Z,101063.21
2023-05-14T20:47:20.179Z,101056.50
2023-05-14T20:49:54.249Z,101058.67
2023-05-14T20:52:28.724Z,101061.33
2023-05-14T20:55:03.056Z,101060.89
2023-05-14T20:57:37.077Z,101059.52
2023-05-14T21:00:13.958Z,101050.23
2023-05-14T21:02:48.223Z,101046.98
2023-05-14T21:05:17.523Z,101048.05
2023-05-14T21:07:45.728Z,101056.11
2023-05-14T21:10:14.132Z,101051.38
2023-05-14T21:12:48.277Z,101048.73
2023-05-14T21:15:23.086Z,101044.83
2023-05-14T21:17:49.738Z,101048.30
2023-05-14T21:20:25.597Z,101046.16
2023-05-14T21:22:59.486Z,101041.66
2023-05-14T21:25:34.238Z,101048.02
2023-05-14T21:28:07.304Z,101040.59
2023-05-14T21:30:32.916Z,101041.89
2023-05-14T21:33:01.255Z,101040.76
2023-05-14T21:35:23.832Z,101036.63
2023-05-14T21:37:54.417Z,101033.27
2023-05-14T21:40:33.988Z,101032.30
2023-05-14T21:43:06.445Z,101030.26
2023-05-14T21:48:20.902Z,101028.18
2023-05-14T21:50:55.125Z,101028.14
2023-05-14T21:53:22.274Z,101023.75
2023-05-14T21:55:57.972Z,101023.11
2023-05-14T21:58:32.785Z,101014.44
2023-05-14T22:01:06.911Z,101018.15
2023-05-14T22:03:30.294Z,101013.09
2023-05-14T22:05:54.746Z,101019.02
2023-05-14T22:08:28.775Z,101006.90
2023-05-14T22:11:04.205Z,101010.19
2023-05-14T22:13:36.492Z,101008.44
2023-05-14T22:16:05.317Z,101002.66
2023-05-14T22:18:36.818Z,101001.77
2023-05-14T22:21:02.162Z,100997.47
2023-05-14T22:23:36.310Z,100999.34
2023-05-14T22:26:14.787Z,100998.52
2023-05-14T22:28:43.982Z,100986.26
2023-05-14T22:31:17.715Z,100981.95
2023-05-14T22:33:44.067Z,100985.42
2023-05-14T22:36:13.771Z,100986.09
2023-05-14T22:38:48.156Z,100980.27
2023-05-14T22:41:10.525Z,100973.55
2023-05-14T22:43:38.061Z,100976.86
2023-05-14T22:46:01.808Z,100973.64
2023-05-14T22:48:35.328Z,100976.45
2023-05-14T22:51:10.535Z,100975.02
2023-05-14T22:53:44.556Z,100973.58
2023-05-14T22:56:29.302Z,100965.41
2023-05-14T22:58:54.944Z,100962.48
2023-05-14T23:01:18.654Z,100962.80
2023-05-14T23:03:48.923Z,100962.77
2023-05-14T23:06:14.861Z,100966.75
2023-05-14T23:08:49.810Z,100967.66
2023-05-14T23:11:12.874Z,100961.77
2023-05-14T23:13:46.975Z,100956.05
2023-05-14T23:16:13.903Z,100961.49
2023-05-14T23:18:44.952Z,100957.20
2023-05-14T23:21:18.269Z,100951.98
2023-05-14T23:23:52.829Z,100950.53
2023-05-14T23:26:25.820Z,100950.33
2023-05-14T23:28:54.266Z,100945.38
2023-05-14T23:31:17.390Z,100947.42
2023-05-14T23:33:45.661Z,100945.17
2023-05-14T23:36:14.325Z,100946.89
2023-05-14T23:38:40.369Z,100949.10
2023-05-14T23:41:15.037Z,100947.07
2023-05-14T23:43:49.997Z,100945.94
2023-05-14T23:46:14.397Z,100944.56
2023-05-14T23:48:48.263Z,100943.48
2023-05-14T23:51:23.070Z,100941.99
2023-05-14T23:53:59.388Z,100935.55
2023-05-14T23:56:33.758Z,100939.72
2023-05-14T23:59:09.046Z,100940.38
